Time;durP1;ratioP1;P1;durP2;ratioP2;P2;SDS_P1;SDS_P2;PMS_P1;PMS_P2;Temp;Humidity;BMP_temperature;BMP_pressure;BME280_temperature;BME280_humidity;BME280_pressure;Samples;Min_cycle;Max_cycle;Signal;HPM_P1;HPM_P2
2022/09/27 00:01:12;;;;;;;5.20;2.13;;;;;;;13.56;100.00;100440.41;10376128;28;20069;-68
2022/09/27 00:06:17;;;;;;;10.65;2.78;;;;;;;13.03;99.65;100371.91;10375929;28;20077;-68
2022/09/27 00:11:31;;;;;;;5.90;2.28;;;;;;;13.45;100.00;100423.81;10374617;28;20045;-68
2022/09/27 00:16:35;;;;;;;3.37;2.00;;;;;;;13.43;100.00;100430.34;10374700;28;20065;-68
2022/09/27 00:21:36;;;;;;;13.38;2.38;;;;;;;13.37;99.83;100434.63;10375092;28;20034;-68
2022/09/27 00:26:37;;;;;;;6.82;2.55;;;;;;;12.81;100.00;100340.00;10375053;28;20100;-68
2022/09/27 00:31:39;;;;;;;8.45;2.40;;;;;;;13.26;100.00;100408.38;10374196;28;20053;-68
2022/09/27 00:36:39;;;;;;;5.18;2.58;;;;;;;13.23;100.00;100403.38;10374039;28;20050;-68
2022/09/27 00:41:41;;;;;;;3.63;2.13;;;;;;;13.25;100.00;100420.03;10374741;28;20042;-68
2022/09/27 00:46:48;;;;;;;3.42;2.20;;;;;;;13.13;100.00;100401.00;10381153;28;20052;-68
2022/09/27 00:52:01;;;;;;;5.85;2.38;;;;;;;13.07;100.00;100406.22;10374049;28;20054;-68
2022/09/27 00:57:04;;;;;;;6.47;2.63;;;;;;;13.13;100.00;100401.00;10382546;28;20073;-68
2022/09/27 01:02:06;;;;;;;3.88;2.50;;;;;;;12.91;100.00;100373.38;10414729;28;20140;-68
2022/09/27 01:07:07;;;;;;;3.70;2.30;;;;;;;12.54;100.00;100305.78;10413489;28;20049;-68
2022/09/27 01:12:18;;;;;;;8.27;2.45;;;;;;;12.43;100.00;100292.06;10413687;28;20045;-68
2022/09/27 01:17:47;;;;;;;21.65;10.65;;;;;;;12.69;100.00;100358.28;10414061;28;20121;-68
2022/09/27 01:22:54;;;;;;;24.77;11.13;;;;;;;12.12;100.00;100302.84;10373945;28;20042;-68
2022/09/27 01:28:26;;;;;;;12.80;6.43;;;;;;;12.38;100.00;100361.03;10372842;28;20049;-68
2022/09/27 01:33:27;;;;;;;9.68;5.18;;;;;;;12.24;100.00;100374.16;10372470;28;20037;-68
2022/09/27 01:38:33;;;;;;;9.75;4.07;;;;;;;12.17;100.00;100383.00;10371820;28;20044;-68
2022/09/27 01:44:05;;;;;;;7.28;3.25;;;;;;;12.14;100.00;100386.84;10372416;28;20034;-68
2022/09/27 01:49:15;;;;;;;14.70;3.53;;;;;;;11.72;100.00;100331.34;10369173;28;20061;-68
2022/09/27 01:54:23;;;;;;;6.35;2.63;;;;;;;11.70;100.00;100334.22;10372148;28;20107;-68
2022/09/27 01:59:31;;;;;;;6.30;2.58;;;;;;;11.73;100.00;100341.03;10371444;28;20115;-68
2022/09/27 02:04:34;;;;;;;5.28;2.70;;;;;;;11.66;100.00;100343.53;10371600;28;20042;-68
2022/09/27 02:09:41;;;;;;;3.72;2.45;;;;;;;11.18;100.00;100284.25;10371933;28;20049;-69
2022/09/27 02:14:56;;;;;;;6.60;3.30;;;;;;;11.51;100.00;100348.75;10371649;28;20572;-68
2022/09/27 02:20:18;;;;;;;10.30;2.80;;;;;;;11.34;100.00;100270.91;10372330;28;20065;-68
2022/09/27 02:25:30;;;;;;;6.90;2.80;;;;;;;11.66;100.00;100295.63;10379765;28;20068;-68
2022/09/27 02:30:32;;;;;;;5.57;3.03;;;;;;;11.52;100.00;100253.84;10379932;28;20122;-68
2022/09/27 02:35:34;;;;;;;46.80;5.00;;;;;;;11.70;100.00;100267.69;10392241;28;20033;-68
2022/09/27 02:40:42;;;;;;;11.77;3.33;;;;;;;11.91;100.00;100259.06;10377766;28;20046;-68
2022/09/27 02:45:58;;;;;;;7.43;3.45;;;;;;;12.52;100.00;100336.28;10378688;28;20548;-67
2022/09/27 02:51:05;;;;;;;9.00;3.20;;;;;;;12.51;100.00;100343.44;10378640;28;20065;-68
2022/09/27 02:56:18;;;;;;;5.18;3.10;;;;;;;12.61;100.00;100334.38;10378924;28;20042;-67
2022/09/27 03:01:31;;;;;;;7.97;4.03;;;;;;;12.85;100.00;100343.94;10389134;28;20064;-68
2022/09/27 03:06:34;;;;;;;6.07;4.57;;;;;;;12.88;100.00;100330.25;10377494;28;20069;-67
2022/09/27 03:11:35;;;;;;;65.03;28.73;;;;;;;13.06;100.00;100351.22;10377463;28;20077;-67
2022/09/27 03:16:36;;;;;;;40.63;14.77;;;;;;;13.05;100.00;100337.06;10376907;28;20065;-68
2022/09/27 03:21:38;;;;;;;30.63;9.93;;;;;;;13.32;100.00;100348.13;10377312;28;20091;-68
2022/09/27 03:26:38;;;;;;;55.00;6.93;;;;;;;13.47;100.00;100357.75;10377714;28;20088;-68
2022/09/27 03:31:40;;;;;;;49.63;7.22;;;;;;;13.57;100.00;100362.78;10376647;28;20096;-69
2022/09/27 03:36:42;;;;;;;36.42;6.60;;;;;;;13.69;100.00;100358.63;10375238;28;20124;-68
2022/09/27 03:41:43;;;;;;;30.08;4.82;;;;;;;13.81;100.00;100350.13;10376514;28;20080;-68
2022/09/27 03:46:44;;;;;;;84.20;8.68;;;;;;;13.75;100.00;100332.19;10375853;28;20038;-68
2022/09/27 03:51:44;;;;;;;12.52;4.45;;;;;;;13.89;100.00;100347.34;10373067;28;20066;-69
2022/09/27 03:56:45;;;;;;;12.38;3.58;;;;;;;13.85;100.00;100333.56;10376228;28;20508;-69
2022/09/27 04:01:46;;;;;;;5.90;3.85;;;;;;;14.09;100.00;100350.19;10375446;28;20045;-69
2022/09/27 04:06:48;;;;;;;6.53;3.90;;;;;;;14.18;100.00;100338.41;10376088;28;20045;-68
2022/09/27 04:11:48;;;;;;;7.55;3.50;;;;;;;13.87;100.00;100271.94;10375155;28;20555;-69
2022/09/27 04:16:49;;;;;;;10.50;3.72;;;;;;;13.95;100.00;100269.16;10375544;28;20064;-69
2022/09/27 04:21:50;;;;;;;12.52;3.97;;;;;;;14.32;100.00;100310.75;10374798;28;20061;-70
2022/09/27 04:26:51;;;;;;;23.92;4.72;;;;;;;14.27;100.00;100299.84;10374228;28;20116;-69
2022/09/27 04:31:52;;;;;;;31.35;5.55;;;;;;;14.35;100.00;100318.38;10372472;28;20098;-72
2022/09/27 04:36:53;;;;;;;11.02;4.70;;;;;;;14.29;100.00;100307.66;10374057;28;20127;-70
2022/09/27 04:41:54;;;;;;;12.18;5.05;;;;;;;14.44;100.00;100319.06;10373780;28;20132;-71
2022/09/27 04:46:55;;;;;;;8.13;5.05;;;;;;;14.06;100.00;100254.44;10370454;28;20517;-70
2022/09/27 04:51:56;;;;;;;14.55;8.52;;;;;;;14.19;100.00;100273.25;10397769;28;20135;-69
2022/09/27 04:56:57;;;;;;;10.68;7.72;;;;;;;14.67;100.00;100348.28;10413285;28;20037;-71
2022/09/27 05:02:01;;;;;;;10.18;5.43;;;;;;;14.71;100.00;100343.38;10412486;28;20047;-70
2022/09/27 05:07:02;;;;;;;10.93;5.13;;;;;;;14.30;100.00;100271.91;10413815;28;20037;-70
2022/09/27 05:12:04;;;;;;;8.60;4.32;;;;;;;14.81;100.00;100349.22;10413943;28;20041;-70
2022/09/27 05:17:06;;;;;;;8.57;4.50;;;;;;;14.91;100.00;100352.34;10413429;28;20049;-70
2022/09/27 05:22:07;;;;;;;10.82;4.75;;;;;;;14.98;100.00;100339.00;10413644;28;20103;-70
2022/09/27 05:27:15;;;;;;;5.15;3.85;;;;;;;14.80;100.00;100283.34;10412931;28;20034;-70
2022/09/27 05:32:15;;;;;;;6.88;4.18;;;;;;;15.50;100.00;100343.81;10412924;28;20045;-70
2022/09/27 05:37:17;;;;;;;11.73;4.53;;;;;;;15.57;100.00;100337.66;10413362;28;20128;-69
2022/09/27 05:42:18;;;;;;;16.70;5.25;;;;;;;15.62;100.00;100325.31;10413250;28;20481;-70
2022/09/27 05:47:19;;;;;;;10.30;4.68;;;;;;;15.60;100.00;100264.94;10412825;28;20037;-70
2022/09/27 05:52:20;;;;;;;20.10;5.13;;;;;;;16.19;100.00;100309.78;10413464;28;20067;-71
2022/09/27 05:57:21;;;;;;;9.82;4.45;;;;;;;16.50;100.00;100333.28;10419056;28;20045;-70
2022/09/27 06:02:21;;;;;;;20.20;7.90;;;;;;;17.25;100.00;100323.03;10420783;28;20037;-70
2022/09/27 06:07:22;;;;;;;23.92;10.07;;;;;;;17.84;100.00;100280.84;10421573;28;20068;-69
2022/09/27 06:12:23;;;;;;;17.40;8.43;;;;;;;18.63;100.00;100319.69;10420391;28;20049;-70
2022/09/27 06:17:24;;;;;;;6.43;3.47;;;;;;;18.90;97.54;100306.81;10420183;28;20056;-70
2022/09/27 06:22:24;;;;;;;7.63;2.80;;;;;;;18.98;94.42;100297.63;10420619;28;20040;-70
2022/09/27 06:27:25;;;;;;;5.32;3.25;;;;;;;19.09;93.61;100293.38;10419794;28;20045;-71
2022/09/27 06:32:26;;;;;;;6.78;3.20;;;;;;;19.37;91.17;100247.84;10420026;28;20041;-71
2022/09/27 06:37:27;;;;;;;9.70;2.90;;;;;;;19.78;88.28;100248.94;10419494;28;20033;-69
2022/09/27 06:42:29;;;;;;;9.15;3.53;;;;;;;19.80;86.33;100186.69;10419302;28;20047;-72
2022/09/27 06:47:37;;;;;;;7.85;3.30;;;;;;;20.39;83.02;100241.50;10419755;28;20448;-70
2022/09/27 06:52:46;;;;;;;7.47;3.05;;;;;;;20.63;80.97;100263.91;10419201;28;20460;-72
2022/09/27 07:03:10;;;;;;;9.10;2.67;;;;;;;20.59;79.51;100202.56;10418890;28;20100;-71
2022/09/27 07:08:11;;;;;;;7.57;3.53;;;;;;;21.29;78.92;100255.56;10418287;28;20037;-72
2022/09/27 07:13:12;;;;;;;7.88;2.90;;;;;;;21.37;77.68;100236.28;10418217;28;20099;-70
2022/09/27 07:18:13;;;;;;;7.65;3.13;;;;;;;21.41;75.83;100222.03;10417669;28;20493;-71
2022/09/27 07:23:14;;;;;;;15.73;3.22;;;;;;;21.48;75.25;100212.97;10418288;28;20469;-72
2022/09/27 07:28:17;;;;;;;10.18;3.25;;;;;;;21.96;73.15;100225.16;10417861;28;20041;-71
2022/09/27 07:33:18;;;;;;;10.33;2.90;;;;;;;22.20;72.05;100205.00;10417403;28;20460;-71
2022/09/27 07:38:19;;;;;;;12.88;2.67;;;;;;;21.95;70.95;100199.16;10417591;28;20045;-71
2022/09/27 07:43:20;;;;;;;9.07;2.83;;;;;;;22.24;69.92;100179.06;10418138;28;20564;-71
2022/09/27 07:48:20;;;;;;;10.18;2.53;;;;;;;22.68;67.71;100189.13;10416371;28;20034;-72
2022/09/27 07:53:23;;;;;;;14.18;2.75;;;;;;;22.68;66.21;100137.69;10417522;28;20053;-72
2022/09/27 07:58:23;;;;;;;18.75;2.40;;;;;;;22.72;65.53;100123.38;10416475;28;20207;-73
2022/09/27 08:03:25;;;;;;;7.72;2.20;;;;;;;22.80;64.31;100119.41;10416888;28;20546;-71
2022/09/27 08:08:27;;;;;;;14.60;2.58;;;;;;;23.12;64.10;100134.91;10416939;28;20037;-73
2022/09/27 08:13:28;;;;;;;10.02;2.17;;;;;;;23.60;62.56;100171.13;10417188;28;20076;-72
2022/09/27 08:18:29;;;;;;;6.47;1.73;;;;;;;23.44;61.76;100135.78;10415139;28;20038;-74
2022/09/27 08:23:30;;;;;;;9.32;1.60;;;;;;;23.59;60.66;100162.19;10416048;28;20054;-72
2022/09/27 08:28:31;;;;;;;29.95;2.33;;;;;;;23.74;60.68;100166.94;10415732;28;20045;-73
2022/09/27 08:33:32;;;;;;;10.32;2.17;;;;;;;23.86;60.57;100170.31;10415921;28;20044;-71
2022/09/27 08:38:33;;;;;;;5.78;1.65;;;;;;;23.98;59.49;100158.44;10415259;28;20753;-70
2022/09/27 08:44:04;;;;;;;8.00;2.50;;;;;;;24.18;58.49;100163.19;10413159;28;20493;-72
2022/09/27 08:49:13;;;;;;;15.27;2.10;;;;;;;24.13;58.73;100156.63;10414167;28;20041;-73
2022/09/27 08:54:20;;;;;;;7.55;1.90;;;;;;;23.96;58.11;100161.44;10414242;28;20131;-72
2022/09/27 08:59:27;;;;;;;7.95;1.85;;;;;;;23.68;58.03;100103.69;10414717;28;20150;-74
2022/09/27 09:04:38;;;;;;;9.05;1.75;;;;;;;23.94;58.02;100084.91;10414616;28;20448;-72
2022/09/27 09:09:57;;;;;;;7.30;2.08;;;;;;;24.53;57.05;100144.41;10414145;28;20048;-72
2022/09/27 09:15:12;;;;;;;15.52;2.17;;;;;;;24.47;56.08;100095.75;10414252;28;20433;-74
2022/09/27 09:20:30;;;;;;;6.55;1.85;;;;;;;24.31;55.37;100040.56;10413878;28;20037;-72
2022/09/27 09:25:48;;;;;;;9.35;2.47;;;;;;;24.82;56.41;100109.44;10413897;28;20440;-72
2022/09/27 09:31:06;;;;;;;8.07;2.30;;;;;;;24.76;55.55;100061.63;10413350;28;20084;-72
2022/09/27 09:36:16;;;;;;;7.30;1.88;;;;;;;25.04;55.12;100063.03;10413038;28;20043;-73
2022/09/27 09:41:26;;;;;;;5.50;1.70;;;;;;;25.19;53.55;100062.25;10412662;28;20414;-75
2022/09/27 09:46:34;;;;;;;7.28;1.85;;;;;;;25.15;53.90;100008.69;10412690;28;20042;-73
2022/09/27 09:51:42;;;;;;;6.65;1.58;;;;;;;25.76;52.70;100043.97;10413584;28;20061;-72
2022/09/27 09:56:52;;;;;;;4.57;1.85;;;;;;;25.66;52.21;99995.00;10412569;28;20055;-74
2022/09/27 10:01:57;;;;;;;13.75;2.80;;;;;;;25.90;52.38;100038.75;10412984;28;20111;-72
2022/09/27 10:07:00;;;;;;;16.70;2.40;;;;;;;26.08;52.57;100034.63;10412244;28;20523;-75
2022/09/27 10:12:00;;;;;;;6.53;2.00;;;;;;;26.26;51.55;100020.38;10412812;28;20050;-75
2022/09/27 10:17:09;;;;;;;11.98;2.00;;;;;;;25.74;49.99;99951.72;10412087;28;20060;-73
2022/09/27 10:22:29;;;;;;;10.85;2.55;;;;;;;25.61;51.19;100023.06;10413094;28;20037;-73
2022/09/27 10:27:49;;;;;;;10.10;2.55;;;;;;;25.63;51.75;100011.88;10411997;28;20056;-73
2022/09/27 10:32:55;;;;;;;14.57;2.00;;;;;;;25.68;51.19;99987.41;10411803;28;20520;-73
2022/09/27 10:38:35;;;;;;;6.82;2.30;;;;;;;25.74;52.18;99994.44;10411825;28;20132;-75
2022/09/27 10:43:36;;;;;;;7.80;2.38;;;;;;;24.64;52.81;99876.38;10395175;28;20062;-72
2022/09/27 10:48:40;;;;;;;11.65;2.35;;;;;;;24.94;53.12;99943.44;10419042;28;20041;-74
2022/09/27 10:53:45;;;;;;;11.27;2.47;;;;;;;25.15;52.30;99957.84;10418945;28;20449;-73
2022/09/27 10:58:46;;;;;;;15.05;2.42;;;;;;;24.69;52.60;99900.81;10419202;28;20049;-73
2022/09/27 11:03:59;;;;;;;8.52;2.13;;;;;;;25.19;51.72;99974.47;10419019;28;20075;-75
2022/09/27 11:09:28;;;;;;;9.80;2.35;;;;;;;25.56;50.06;99965.13;10419345;28;20385;-73
2022/09/27 11:14:31;;;;;;;5.65;1.92;;;;;;;25.54;50.31;99899.31;10409947;28;20046;-72
2022/09/27 11:19:42;;;;;;;12.05;2.30;;;;;;;25.62;48.97;99860.66;10418534;28;20048;-70
2022/09/27 11:25:13;;;;;;;8.50;2.10;;;;;;;25.63;48.03;99868.53;10418247;28;20041;-71
2022/09/27 11:30:20;;;;;;;7.22;2.03;;;;;;;24.96;48.26;99821.72;10417985;28;20112;-73
2022/09/27 11:35:46;;;;;;;7.05;1.92;;;;;;;25.15;49.06;99908.94;10417875;28;20188;-72
2022/09/27 11:41:14;;;;;;;5.60;1.70;;;;;;;25.08;49.30;99943.72;10417611;28;20038;-72
2022/09/27 11:46:28;;;;;;;6.72;2.10;;;;;;;24.82;49.61;99937.47;10417453;28;20084;-72
2022/09/27 11:51:34;;;;;;;5.70;1.88;;;;;;;24.47;49.69;99911.13;10417636;28;20421;-72
2022/09/27 11:56:57;;;;;;;12.18;2.17;;;;;;;24.57;50.79;99958.13;10417049;28;20056;-71
2022/09/27 12:02:44;;;;;;;8.45;2.15;;;;;;;24.54;51.01;99939.66;10395425;28;20041;-72
2022/09/27 12:08:06;;;;;;;12.27;1.77;;;;;;;24.14;51.15;99853.50;10402523;28;20053;-72
2022/09/27 12:13:12;;;;;;;8.82;1.88;;;;;;;24.18;51.36;99848.38;10416007;28;20041;-71
2022/09/27 12:18:21;;;;;;;9.18;2.13;;;;;;;24.57;51.59;99895.66;10415524;28;20605;-71
2022/09/27 12:23:35;;;;;;;12.40;2.67;;;;;;;24.19;51.14;99834.53;10345921;28;20121;-73
2022/09/27 12:29:00;;;;;;;11.90;2.28;;;;;;;24.67;52.14;99910.31;10357824;28;20041;-71
2022/09/27 12:34:17;;;;;;;10.68;2.30;;;;;;;24.59;52.41;99901.63;10374112;28;20033;-70
2022/09/27 12:39:39;;;;;;;9.40;1.95;;;;;;;24.50;52.26;99889.69;10373805;28;20042;-70
2022/09/27 12:44:41;;;;;;;21.35;2.35;;;;;;;24.43;52.66;99863.88;10363907;28;20038;-72
2022/09/27 12:50:10;;;;;;;8.77;2.03;;;;;;;24.75;52.28;99907.06;10339317;28;20069;-72
2022/09/27 12:55:27;;;;;;;9.40;2.40;;;;;;;24.99;52.00;99908.13;10347865;28;20049;-71
2022/09/27 13:00:41;;;;;;;11.68;3.00;;;;;;;25.22;51.25;99911.38;10332617;28;20579;-72
2022/09/27 13:06:00;;;;;;;11.77;2.60;;;;;;;25.23;50.69;99913.00;10331691;28;20149;-72
2022/09/27 13:11:13;;;;;;;14.27;2.60;;;;;;;25.02;51.74;99909.47;10332764;28;20112;-72
2022/09/27 13:16:13;;;;;;;11.63;2.77;;;;;;;24.60;52.34;99888.88;10332102;28;20100;-72
2022/09/27 13:21:50;;;;;;;12.00;2.83;;;;;;;24.40;53.06;99886.13;10331427;28;20278;-72
2022/09/27 13:26:50;;;;;;;8.98;2.40;;;;;;;23.65;53.95;99789.66;10332108;28;20042;-72
2022/09/27 13:31:57;;;;;;;32.42;3.15;;;;;;;24.02;55.45;99852.94;10332110;28;20045;-72
2022/09/27 13:36:58;;;;;;;21.77;2.72;;;;;;;23.81;55.86;99838.53;10332303;28;20046;-72
2022/09/27 13:42:14;;;;;;;16.02;3.10;;;;;;;23.37;57.12;99799.06;10332356;28;20035;-72
2022/09/27 13:47:26;;;;;;;9.75;2.00;;;;;;;23.53;56.84;99837.06;10342644;28;20047;-72
2022/09/27 13:52:35;;;;;;;7.90;2.30;;;;;;;23.53;57.51;99837.88;10343157;28;20135;-72
2022/09/27 13:57:48;;;;;;;10.27;2.00;;;;;;;23.00;58.12;99756.69;10346324;28;20041;-72
2022/09/27 14:03:16;;;;;;;14.93;2.30;;;;;;;23.34;57.61;99806.94;10352197;28;20046;-72
2022/09/27 14:08:28;;;;;;;9.07;2.15;;;;;;;23.47;57.97;99839.75;10339914;28;20417;-72
2022/09/27 14:13:31;;;;;;;7.15;1.55;;;;;;;23.38;57.56;99829.69;10348515;28;20545;-71
2022/09/27 14:18:36;;;;;;;9.20;2.20;;;;;;;23.22;57.84;99847.81;10348049;28;20609;-73
2022/09/27 14:23:37;;;;;;;11.15;1.90;;;;;;;23.21;58.41;99838.03;10358166;28;20046;-73
2022/09/27 14:28:40;;;;;;;13.45;2.17;;;;;;;23.08;58.69;99825.78;10367124;28;20047;-70
2022/09/27 14:33:41;;;;;;;9.70;2.03;;;;;;;22.63;58.37;99743.16;10349862;28;20132;-71
2022/09/27 14:38:42;;;;;;;14.70;2.92;;;;;;;22.90;59.08;99826.19;10352129;28;20129;-71
2022/09/27 14:43:49;;;;;;;15.63;2.50;;;;;;;22.61;60.16;99820.31;10376386;28;20084;-71
2022/09/27 14:48:50;;;;;;;11.35;1.90;;;;;;;22.00;60.52;99774.63;10376710;28;20050;-71
2022/09/27 14:53:56;;;;;;;30.90;3.53;;;;;;;22.18;61.59;99841.88;10354410;28;20050;-71
2022/09/27 14:59:11;;;;;;;23.95;2.95;;;;;;;21.57;62.63;99784.47;10338117;28;20129;-72
2022/09/27 15:04:14;;;;;;;26.98;3.03;;;;;;;21.63;63.16;99832.94;10337828;28;20045;-71
2022/09/27 15:09:18;;;;;;;31.10;3.45;;;;;;;21.40;64.87;99830.50;10336697;28;20449;-71
2022/09/27 15:14:21;;;;;;;25.40;7.68;;;;;;;21.18;64.59;99792.66;10337346;28;20042;-71
2022/09/27 15:19:27;;;;;;;26.38;4.32;;;;;;;20.55;65.16;99694.09;10336651;28;20045;-71
2022/09/27 15:24:35;;;;;;;11.90;2.65;;;;;;;21.11;65.35;99770.41;10333405;28;20038;-70
2022/09/27 15:29:36;;;;;;;10.88;2.03;;;;;;;20.84;64.35;99700.94;10335625;28;20042;-71
2022/09/27 15:34:37;;;;;;;15.95;2.03;;;;;;;21.03;64.08;99704.16;10412164;28;20060;-71
2022/09/27 15:39:39;;;;;;;11.05;1.52;;;;;;;21.45;64.27;99771.13;10417694;28;20037;-71
2022/09/27 15:44:46;;;;;;;10.23;2.00;;;;;;;21.52;64.63;99787.94;10392455;28;20076;-69
2022/09/27 15:49:47;;;;;;;13.55;2.72;;;;;;;21.45;64.26;99748.66;10375883;28;20441;-69
2022/09/27 15:54:50;;;;;;;14.27;2.00;;;;;;;21.04;64.55;99661.78;10375152;28;20041;-70
2022/09/27 15:59:51;;;;;;;12.50;2.25;;;;;;;21.03;64.83;99687.13;10380611;28;20037;-71
2022/09/27 16:04:52;;;;;;;12.13;2.10;;;;;;;21.41;65.21;99754.56;10387116;28;20576;-69
2022/09/27 16:09:54;;;;;;;10.98;1.77;;;;;;;20.87;65.58;99672.63;10415082;28;20037;-69
2022/09/27 16:14:57;;;;;;;12.35;1.75;;;;;;;21.25;65.84;99717.63;10399829;28;20034;-69
2022/09/27 16:19:58;;;;;;;8.07;1.73;;;;;;;20.39;66.13;99631.81;10396107;28;20060;-70
2022/09/27 16:24:58;;;;;;;8.98;1.25;;;;;;;21.20;66.30;99787.78;10399278;28;20041;-68
2022/09/27 16:29:59;;;;;;;11.32;1.98;;;;;;;21.12;66.93;99823.34;10391855;28;20100;-71
2022/09/27 16:35:02;;;;;;;10.50;2.17;;;;;;;20.94;67.46;99827.19;10384679;28;20049;-71
2022/09/27 16:40:04;;;;;;;13.32;5.85;;;;;;;20.70;67.94;99783.34;10386978;28;20045;-70
2022/09/27 16:45:06;;;;;;;13.15;3.08;;;;;;;20.49;68.22;99750.66;10384722;28;20042;-71
2022/09/27 16:55:31;;;;;;;10.55;1.83;;;;;;;20.03;69.02;99689.81;10391340;28;20505;-69
2022/09/27 17:00:32;;;;;;;;;;;;;;;20.43;68.54;99721.97;10383166;28;20038;-70
2022/09/27 17:05:33;;;;;;;10.13;1.98;;;;;;;20.30;69.02;99749.28;10383453;28;20579;-70
2022/09/27 17:10:34;;;;;;;8.02;1.88;;;;;;;20.28;69.33;99752.25;10371986;28;20125;-71
2022/09/27 17:15:36;;;;;;;9.40;1.58;;;;;;;19.64;69.37;99648.47;10398458;28;20497;-72
2022/09/27 17:20:36;;;;;;;14.18;1.88;;;;;;;19.94;69.92;99713.66;10373166;28;20126;-71
2022/09/27 17:25:37;;;;;;;8.73;1.90;;;;;;;19.88;70.06;99725.41;10372967;28;20037;-72
2022/09/27 17:30:42;;;;;;;10.77;1.92;;;;;;;19.84;70.39;99745.84;10372746;28;20116;-71
2022/09/27 17:35:44;;;;;;;20.20;1.90;;;;;;;19.77;70.77;99747.88;10373043;28;20049;-71
2022/09/27 17:40:44;;;;;;;8.32;1.92;;;;;;;19.31;71.17;99693.13;10382390;28;20498;-72
2022/09/27 17:45:45;;;;;;;12.50;2.28;;;;;;;19.55;71.40;99743.16;10386769;28;20041;-71
2022/09/27 17:50:47;;;;;;;9.30;2.03;;;;;;;19.15;71.81;99705.50;10389402;28;20049;-71
2022/09/27 17:55:49;;;;;;;6.43;1.90;;;;;;;19.21;72.25;99730.66;10391625;28;20042;-71
2022/09/27 18:00:51;;;;;;;7.88;2.08;;;;;;;19.20;72.55;99739.78;10389187;28;20034;-71
2022/09/27 18:05:51;;;;;;;8.77;1.85;;;;;;;18.37;73.04;99601.94;10387997;28;20045;-70
2022/09/27 18:10:53;;;;;;;10.70;1.85;;;;;;;18.95;73.29;99700.53;10390280;28;20468;-71
2022/09/27 18:15:57;;;;;;;7.72;2.05;;;;;;;19.02;73.89;99730.81;10389282;28;20147;-71
2022/09/27 18:21:02;;;;;;;12.82;2.33;;;;;;;18.89;75.20;99714.94;10401502;28;20143;-72
2022/09/27 18:26:07;;;;;;;7.35;1.73;;;;;;;18.22;74.87;99630.13;10387153;28;20045;-71
2022/09/27 18:31:14;;;;;;;11.38;1.90;;;;;;;18.12;75.87;99635.25;10390189;28;20139;-70
2022/09/27 18:36:23;;;;;;;5.82;1.52;;;;;;;18.40;76.07;99709.03;10400492;28;20118;-70
2022/09/27 18:41:26;;;;;;;6.00;1.70;;;;;;;18.32;76.86;99701.31;10412217;28;20069;-70
2022/09/27 18:46:30;;;;;;;9.13;1.93;;;;;;;18.14;77.64;99694.19;10412218;28;20183;-71
2022/09/27 18:51:32;;;;;;;10.30;2.10;;;;;;;17.73;77.33;99626.81;10412709;28;20061;-71
2022/09/27 18:56:38;;;;;;;12.65;2.22;;;;;;;18.06;78.12;99686.44;10410370;28;20046;-71
2022/09/27 19:01:43;;;;;;;12.02;1.80;;;;;;;17.98;79.62;99676.88;10383768;28;20042;-71
2022/09/27 19:06:44;;;;;;;8.00;1.73;;;;;;;17.73;79.66;99656.34;10378221;28;20046;-71
2022/09/27 19:11:45;;;;;;;15.98;1.95;;;;;;;17.69;80.80;99651.69;10377304;28;20052;-70
2022/09/27 19:16:46;;;;;;;16.02;2.10;;;;;;;17.83;81.52;99671.13;10378256;28;20046;-70
2022/09/27 19:21:47;;;;;;;7.30;1.70;;;;;;;17.64;82.53;99649.69;10377793;28;20049;-71
2022/09/27 19:26:52;;;;;;;7.10;1.60;;;;;;;17.59;83.06;99646.91;10377466;28;20037;-70
2022/09/27 19:31:53;;;;;;;8.50;1.60;;;;;;;17.15;83.59;99602.56;10377268;28;20046;-71
2022/09/27 19:36:54;;;;;;;9.57;1.90;;;;;;;17.24;84.61;99615.41;10375912;28;20525;-71
2022/09/27 19:41:55;;;;;;;8.90;2.00;;;;;;;17.57;85.67;99667.78;10377140;28;20046;-70
2022/09/27 19:46:55;;;;;;;6.53;2.10;;;;;;;17.50;86.49;99672.41;10376051;28;20072;-70
2022/09/27 19:51:56;;;;;;;7.93;1.75;;;;;;;17.27;87.58;99639.09;10387446;28;20073;-70
2022/09/27 19:56:57;;;;;;;7.80;2.00;;;;;;;16.49;89.19;99513.06;10375760;28;20465;-70
2022/09/27 20:01:58;;;;;;;13.48;2.20;;;;;;;17.20;90.53;99634.88;10376286;28;20041;-70
2022/09/27 20:06:59;;;;;;;6.38;1.70;;;;;;;17.24;91.25;99647.63;10375849;28;20041;-70
2022/09/27 20:12:01;;;;;;;10.20;2.10;;;;;;;17.09;92.43;99629.25;10375691;28;20046;-70
2022/09/27 20:17:02;;;;;;;9.73;2.45;;;;;;;17.22;93.28;99636.28;10374863;28;20442;-70
2022/09/27 20:22:03;;;;;;;7.93;1.83;;;;;;;17.08;93.41;99613.34;10375043;28;20045;-70
2022/09/27 20:27:04;;;;;;;17.63;2.47;;;;;;;17.16;94.56;99618.41;10375413;28;20068;-71
2022/09/27 20:32:05;;;;;;;9.48;2.40;;;;;;;17.05;95.47;99577.09;10374947;28;20046;-71
2022/09/27 20:37:06;;;;;;;8.00;2.05;;;;;;;17.05;95.99;99581.63;10374896;28;20073;-71
2022/09/27 20:42:07;;;;;;;12.50;2.95;;;;;;;17.16;96.50;99588.06;10373805;28;20568;-71
2022/09/27 20:47:08;;;;;;;10.93;2.30;;;;;;;17.26;97.16;99599.06;10375025;28;20100;-71
2022/09/27 20:52:08;;;;;;;6.85;1.85;;;;;;;16.86;97.48;99538.75;10374285;28;20120;-71
2022/09/27 20:57:09;;;;;;;10.30;2.45;;;;;;;17.19;99.04;99604.53;10373420;28;20049;-71
2022/09/27 21:02:10;;;;;;;7.90;2.45;;;;;;;17.22;99.40;99606.75;10373184;28;20125;-70
2022/09/27 21:07:11;;;;;;;6.88;2.03;;;;;;;16.54;100.00;99505.16;10374012;28;20046;-71
2022/09/27 21:12:12;;;;;;;8.07;2.10;;;;;;;17.10;100.00;99609.41;10372771;28;20398;-71
2022/09/27 21:17:12;;;;;;;7.28;2.28;;;;;;;16.84;100.00;99588.31;10373489;28;20450;-71
2022/09/27 21:22:13;;;;;;;13.02;2.40;;;;;;;16.13;100.00;99488.78;10372656;28;20061;-71
2022/09/27 21:27:14;;;;;;;8.35;2.20;;;;;;;16.77;100.00;99607.19;10372060;28;20133;-71
2022/09/27 21:32:15;;;;;;;11.48;2.63;;;;;;;16.76;100.00;99610.09;10372279;28;20132;-71
2022/09/27 21:37:16;;;;;;;6.85;2.47;;;;;;;16.37;100.00;99562.09;10372751;28;20120;-71
2022/09/27 21:42:17;;;;;;;13.48;3.30;;;;;;;16.81;100.00;99620.94;10370793;28;20048;-71
2022/09/27 21:47:17;;;;;;;15.70;2.60;;;;;;;16.84;100.00;99633.91;10372650;28;20065;-72
2022/09/27 21:52:18;;;;;;;10.82;2.88;;;;;;;16.50;100.00;99597.81;10372740;28;20062;-71
2022/09/27 21:57:19;;;;;;;12.52;2.90;;;;;;;16.91;100.00;99664.19;10371221;28;20521;-71
2022/09/27 22:02:20;;;;;;;10.20;3.00;;;;;;;16.98;100.00;99664.09;10371498;28;20049;-71
2022/09/27 22:07:21;;;;;;;10.40;3.05;;;;;;;16.63;100.00;99570.81;10386952;28;20401;-72
2022/09/27 22:12:21;;;;;;;10.98;3.35;;;;;;;17.18;100.00;99648.53;10370583;28;20052;-72
2022/09/27 22:17:22;;;;;;;6.93;2.88;;;;;;;17.13;100.00;99613.50;10380634;28;20050;-72
2022/09/27 22:22:23;;;;;;;14.48;4.00;;;;;;;16.99;100.00;99574.47;10370602;28;20069;-71
2022/09/27 22:27:24;;;;;;;16.17;3.97;;;;;;;17.25;100.00;99614.34;10371551;28;20073;-71
2022/09/27 22:32:24;;;;;;;16.05;3.75;;;;;;;17.09;100.00;99555.97;10371187;28;20038;-71
2022/09/27 22:37:25;;;;;;;8.63;3.30;;;;;;;17.32;100.00;99607.03;10371885;28;20104;-71
2022/09/27 22:42:26;;;;;;;14.07;4.25;;;;;;;17.32;100.00;99660.72;10378964;28;20061;-72
2022/09/27 22:47:27;;;;;;;9.82;4.10;;;;;;;16.94;100.00;99582.41;10378304;28;20494;-71
2022/09/27 22:52:28;;;;;;;9.75;4.57;;;;;;;17.06;100.00;99569.84;10379350;28;20143;-71
2022/09/27 22:57:29;;;;;;;10.25;4.20;;;;;;;17.42;100.00;99633.31;10379122;28;20113;-71
2022/09/27 23:02:30;;;;;;;12.00;4.60;;;;;;;16.61;100.00;99495.16;10378761;28;20034;-71
2022/09/27 23:07:31;;;;;;;9.80;4.68;;;;;;;16.99;100.00;99540.44;10378472;28;20034;-71
2022/09/27 23:12:32;;;;;;;12.38;4.88;;;;;;;17.35;100.00;99627.25;10382883;28;20045;-72
2022/09/27 23:17:32;;;;;;;14.80;5.32;;;;;;;17.46;100.00;99631.78;10383280;28;20069;-71
2022/09/27 23:22:34;;;;;;;11.23;5.10;;;;;;;17.60;100.00;99653.91;10390729;28;20460;-72
2022/09/27 23:27:41;;;;;;;8.13;4.95;;;;;;;17.60;100.00;99618.97;10398811;28;20457;-71